Time;durP1;ratioP1;P1;durP2;ratioP2;P2;SDS_P1;SDS_P2;PMS_P1;PMS_P2;Temp;Humidity;BMP_temperature;BMP_pressure;BME280_temperature;BME280_humidity;BME280_pressure;Samples;Min_cycle;Max_cycle;Signal;HPM_P1;HPM_P2
2023/08/12 00:00:58;;;;;;;12.60;11.00;;;;;;;23.75;67.47;99515.70;105650;1251;67736;-74
2023/08/12 00:03:25;;;;;;;18.20;15.00;;;;;;;23.66;67.76;99513.61;106082;1251;72818;-71
2023/08/12 00:05:52;;;;;;;27.90;21.30;;;;;;;23.70;67.80;99509.59;105989;1251;61651;-73
2023/08/12 00:08:19;;;;;;;16.70;13.30;;;;;;;23.39;69.82;99504.27;106015;1254;62310;-71
2023/08/12 00:10:46;;;;;;;13.30;11.80;;;;;;;23.52;69.15;99506.56;106037;1251;73150;-72
2023/08/12 00:13:17;;;;;;;13.20;10.70;;;;;;;23.60;68.64;99506.91;106043;1251;68466;-71
2023/08/12 00:15:44;;;;;;;12.00;10.30;;;;;;;23.35;69.98;99506.79;106021;1251;73036;-73
2023/08/12 00:18:11;;;;;;;13.10;11.70;;;;;;;23.31;70.36;99507.30;105783;1253;61906;-74
2023/08/12 00:20:38;;;;;;;13.20;10.90;;;;;;;23.22;70.74;99507.30;106058;1251;61343;-74
2023/08/12 00:23:05;;;;;;;13.60;12.10;;;;;;;23.02;72.59;99513.41;106109;1256;74304;-74
2023/08/12 00:25:32;;;;;;;27.40;19.90;;;;;;;22.96;73.16;99507.48;106063;1256;68506;-74
2023/08/12 00:27:58;;;;;;;24.40;17.50;;;;;;;22.92;73.68;99508.14;105815;1251;72343;-73
2023/08/12 00:30:25;;;;;;;62.20;41.00;;;;;;;22.92;73.76;99507.20;106045;1253;61230;-72
2023/08/12 00:32:52;;;;;;;47.70;30.80;;;;;;;22.86;73.97;99504.48;106056;1255;61254;-72
2023/08/12 00:35:19;;;;;;;47.90;30.40;;;;;;;22.82;74.55;99501.27;106038;1256;74534;-74
2023/08/12 00:37:46;;;;;;;21.30;16.00;;;;;;;23.12;72.25;99504.32;106044;1252;67514;-73
2023/08/12 00:40:13;;;;;;;27.80;19.00;;;;;;;23.28;70.80;99507.80;106034;1254;72412;-75
2023/08/12 00:42:39;;;;;;;28.70;19.70;;;;;;;23.13;72.01;99502.70;105993;1251;62010;-75
2023/08/12 00:45:09;;;;;;;23.60;15.10;;;;;;;23.10;71.94;99506.48;106050;1253;61224;-73
2023/08/12 00:47:36;;;;;;;36.10;24.60;;;;;;;22.89;73.86;99503.09;105809;1258;74584;-71
2023/08/12 00:50:03;;;;;;;21.00;14.00;;;;;;;23.13;72.16;99507.23;105982;1251;68571;-72
2023/08/12 00:52:30;;;;;;;21.70;15.20;;;;;;;23.11;71.21;99506.61;105992;1251;72637;-75
2023/08/12 00:54:57;;;;;;;12.50;11.30;;;;;;;22.89;72.38;99503.14;106024;1251;61320;-71
2023/08/12 00:57:23;;;;;;;14.90;11.30;;;;;;;23.06;71.32;99503.05;105930;1253;61297;-73
2023/08/12 00:59:50;;;;;;;228.80;168.20;;;;;;;22.86;71.98;99497.61;105842;1260;75243;-73
2023/08/12 01:02:17;;;;;;;141.00;99.90;;;;;;;22.65;74.58;99495.36;105959;1253;68410;-75
2023/08/12 01:04:44;;;;;;;297.10;189.00;;;;;;;23.01;71.02;99499.05;105659;1255;72915;-72
2023/08/12 01:07:11;;;;;;;270.10;158.60;;;;;;;22.83;71.79;99496.70;105841;1253;61848;-72
2023/08/12 01:09:38;;;;;;;235.00;129.60;;;;;;;22.57;73.52;99494.61;105929;1253;61323;-72
2023/08/12 01:12:29;;;;;;;339.50;203.60;;;;;;;22.53;74.26;99494.23;105905;1255;73476;-76
2023/08/12 01:15:36;;;;;;;267.10;159.80;;;;;;;22.41;74.71;99495.27;105307;1259;68777;-74
2023/08/12 01:18:03;;;;;;;445.60;274.60;;;;;;;21.92;78.91;99494.94;104629;1271;72103;-76
2023/08/12 01:20:30;;;;;;;125.30;75.60;;;;;;;21.86;79.53;99501.79;104723;1268;61978;-77
2023/08/12 01:23:02;;;;;;;56.80;35.30;;;;;;;21.78;79.49;99506.55;104727;1268;61312;-73
2023/08/12 01:25:28;;;;;;;154.80;98.60;;;;;;;21.70;81.08;99511.16;104773;1268;74535;-75
2023/08/12 01:27:56;;;;;;;301.40;194.10;;;;;;;21.86;79.14;99508.45;104810;1268;68638;-75
2023/08/12 01:30:23;;;;;;;173.70;114.10;;;;;;;21.44;82.52;99510.59;104744;1268;71364;-75
2023/08/12 01:32:57;;;;;;;75.40;52.30;;;;;;;21.51;81.42;99510.73;104839;1267;61763;-71
2023/08/12 01:35:27;;;;;;;136.50;79.40;;;;;;;21.83;79.07;99511.70;104848;1269;61276;-72
2023/08/12 01:37:54;;;;;;;103.10;60.80;;;;;;;21.75;80.27;99516.67;104769;1266;73373;-71
2023/08/12 01:40:21;;;;;;;51.80;33.30;;;;;;;21.50;81.37;99512.89;104790;1267;69159;-72
2023/08/12 01:42:48;;;;;;;62.30;39.70;;;;;;;21.39;82.00;99511.70;104815;1268;72980;-73
2023/08/12 01:45:15;;;;;;;213.50;136.90;;;;;;;21.57;81.12;99512.90;104761;1268;61569;-73
2023/08/12 01:47:45;;;;;;;88.80;68.40;;;;;;;21.66;80.01;99512.24;104884;1270;61450;-72
2023/08/12 01:50:11;;;;;;;236.00;169.70;;;;;;;21.57;80.44;99511.59;104788;1270;75140;-72
2023/08/12 01:52:38;;;;;;;74.30;58.80;;;;;;;21.37;81.94;99510.90;105327;1256;69212;-71
2023/08/12 01:55:06;;;;;;;105.30;76.70;;;;;;;21.25;83.18;99507.81;105817;1253;72345;-73
2023/08/12 01:57:33;;;;;;;137.70;86.10;;;;;;;20.94;86.49;99501.91;105705;1260;61323;-70
2023/08/12 02:00:01;;;;;;;155.10;84.70;;;;;;;20.98;86.92;99504.48;105858;1253;61220;-71
2023/08/12 02:02:45;;;;;;;115.40;63.60;;;;;;;21.11;85.60;99504.60;106024;1256;75101;-70
2023/08/12 02:05:14;;;;;;;211.00;113.90;;;;;;;21.05;86.28;99507.05;106041;1256;69021;-71
2023/08/12 02:07:41;;;;;;;87.40;49.80;;;;;;;21.03;86.51;99512.10;105950;1253;73282;-73
2023/08/12 02:10:09;;;;;;;67.80;41.20;;;;;;;21.10;86.05;99512.64;105962;1256;61614;-74
2023/08/12 02:12:36;;;;;;;51.80;34.40;;;;;;;20.99;86.45;99513.98;106010;1256;61218;-79
2023/08/12 02:15:03;;;;;;;101.10;60.50;;;;;;;21.12;85.46;99514.14;106024;1253;75180;-72
2023/08/12 02:17:30;;;;;;;57.70;37.80;;;;;;;21.16;85.03;99512.84;105751;1253;68556;-73
2023/08/12 02:19:57;;;;;;;41.00;28.80;;;;;;;21.26;84.47;99512.92;105990;1256;71625;-72
2023/08/12 02:22:24;;;;;;;89.50;56.20;;;;;;;21.23;84.43;99512.89;105797;1259;61608;-71
2023/08/12 02:24:51;;;;;;;46.50;34.30;;;;;;;21.41;83.54;99513.75;105637;1257;61250;-73
2023/08/12 02:27:18;;;;;;;52.70;32.00;;;;;;;21.21;85.00;99515.85;106038;1256;75099;-72
2023/08/12 02:29:45;;;;;;;32.40;23.90;;;;;;;21.11;85.62;99515.17;106054;1256;68912;-73
2023/08/12 02:32:11;;;;;;;32.30;24.20;;;;;;;20.96;87.23;99515.05;105983;1253;72566;-75
2023/08/12 02:34:38;;;;;;;24.70;20.10;;;;;;;20.92;87.62;99513.15;106052;1256;61739;-72
2023/08/12 02:37:05;;;;;;;20.80;18.00;;;;;;;21.06;85.99;99513.95;106062;1251;61531;-73
2023/08/12 02:39:32;;;;;;;20.80;15.70;;;;;;;21.02;86.31;99508.19;106027;1253;74351;-73
2023/08/12 02:41:59;;;;;;;16.50;12.80;;;;;;;20.99;86.60;99509.00;106047;1255;67610;-73
2023/08/12 02:44:28;;;;;;;15.70;14.00;;;;;;;21.11;85.97;99509.05;106040;1254;72636;-72
2023/08/12 02:46:54;;;;;;;14.50;13.00;;;;;;;21.08;86.50;99514.13;105845;1253;61668;-73
2023/08/12 02:49:21;;;;;;;14.60;12.90;;;;;;;21.40;83.80;99514.49;105923;1253;62294;-73
2023/08/12 02:51:48;;;;;;;20.60;17.60;;;;;;;21.61;81.95;99516.73;106008;1255;75069;-73
2023/08/12 02:54:15;;;;;;;15.10;13.60;;;;;;;21.56;82.04;99515.85;105923;1251;69103;-72
2023/08/12 02:56:42;;;;;;;17.30;14.10;;;;;;;21.62;81.43;99513.36;105961;1256;72853;-71
2023/08/12 02:59:09;;;;;;;13.40;12.20;;;;;;;21.42;83.44;99509.63;105876;1251;61870;-73
2023/08/12 03:01:35;;;;;;;12.40;11.20;;;;;;;21.45;83.07;99513.27;105928;1251;61228;-72
2023/08/12 03:04:02;;;;;;;17.40;14.10;;;;;;;21.35;83.88;99510.04;105801;1257;128577;-72
2023/08/12 03:06:29;;;;;;;32.20;15.40;;;;;;;21.47;83.05;99502.27;106080;1251;69607;-71
2023/08/12 03:08:56;;;;;;;50.10;33.80;;;;;;;21.62;81.76;99502.65;105864;1253;72296;-73
2023/08/12 03:11:22;;;;;;;45.80;36.40;;;;;;;21.70;81.08;99505.24;105845;1257;61353;-74
2023/08/12 03:13:49;;;;;;;62.20;44.20;;;;;;;21.81;80.20;99510.52;106073;1253;61305;-72
2023/08/12 03:16:18;;;;;;;72.10;48.30;;;;;;;21.79;80.59;99512.69;106043;1251;75185;-72
2023/08/12 03:18:46;;;;;;;171.00;105.80;;;;;;;21.73;81.12;99508.80;106111;1256;69022;-73
2023/08/12 03:21:13;;;;;;;100.60;58.30;;;;;;;21.31;84.43;99508.98;105843;1259;72342;-73
2023/08/12 03:23:40;;;;;;;59.10;34.10;;;;;;;21.49;84.10;99514.30;105953;1251;62298;-74
2023/08/12 03:26:08;;;;;;;159.40;82.00;;;;;;;21.73;82.49;99515.75;106015;1251;61378;-69
2023/08/12 03:28:35;;;;;;;109.10;61.20;;;;;;;21.54;84.14;99519.60;105891;1255;74814;-70
2023/08/12 03:31:02;;;;;;;71.80;48.60;;;;;;;21.64;84.01;99522.50;106000;1251;69210;-70
2023/08/12 03:33:32;;;;;;;54.50;37.70;;;;;;;21.85;82.27;99523.95;105927;1253;72510;-70
2023/08/12 03:35:59;;;;;;;77.90;48.70;;;;;;;21.95;81.28;99518.71;105969;1252;61253;-72
2023/08/12 03:38:26;;;;;;;64.20;41.10;;;;;;;21.96;81.24;99520.79;105955;1251;62251;-69
2023/08/12 03:40:54;;;;;;;52.60;37.20;;;;;;;22.22;79.25;99519.99;105940;1256;74960;-69
2023/08/12 03:43:21;;;;;;;47.70;35.10;;;;;;;22.06;80.47;99519.38;105883;1253;69062;-69
2023/08/12 03:45:48;;;;;;;39.20;30.00;;;;;;;22.03;81.00;99516.12;105914;1251;73134;-70
2023/08/12 03:48:16;;;;;;;29.80;24.40;;;;;;;22.26;79.35;99523.39;105943;1251;61813;-70
2023/08/12 03:50:42;;;;;;;19.00;17.00;;;;;;;22.43;78.19;99524.95;105744;1253;61225;-68
2023/08/12 03:53:09;;;;;;;15.50;13.80;;;;;;;22.83;75.93;99527.13;105787;1257;74787;-71
2023/08/12 03:55:37;;;;;;;14.60;11.50;;;;;;;23.12;73.59;99529.48;105677;1251;69135;-70
2023/08/12 03:58:05;;;;;;;11.80;9.80;;;;;;;23.10;73.39;99525.73;105953;1256;72672;-73
2023/08/12 04:00:32;;;;;;;14.20;10.40;;;;;;;23.27;72.42;99529.04;105729;1253;61875;-70
2023/08/12 04:02:59;;;;;;;11.40;10.30;;;;;;;23.31;72.62;99529.12;105946;1253;61399;-70
2023/08/12 04:05:27;;;;;;;15.00;9.00;;;;;;;23.24;72.52;99521.15;105966;1256;74528;-69
2023/08/12 04:07:54;;;;;;;10.90;9.00;;;;;;;23.67;70.20;99525.91;105927;1253;68953;-69
2023/08/12 04:10:21;;;;;;;11.10;9.50;;;;;;;23.50;70.99;99533.10;105678;1258;73136;-70
2023/08/12 04:12:48;;;;;;;10.30;9.20;;;;;;;24.01;69.45;99534.04;105845;1251;61834;-70
2023/08/12 04:15:14;;;;;;;27.60;16.60;;;;;;;24.30;66.40;99533.54;105957;1251;62283;-69
2023/08/12 04:17:41;;;;;;;21.80;19.40;;;;;;;24.04;67.43;99534.65;105954;1256;75216;-76
2023/08/12 04:20:09;;;;;;;58.50;49.10;;;;;;;24.49;65.96;99537.58;105677;1260;69177;-70
2023/08/12 04:22:36;;;;;;;12.10;9.40;;;;;;;24.84;63.42;99534.66;105953;1254;73279;-71
2023/08/12 04:25:04;;;;;;;49.60;33.00;;;;;;;25.27;60.81;99535.45;105681;1254;61901;-71
2023/08/12 04:27:31;;;;;;;42.00;31.20;;;;;;;25.51;59.65;99535.97;105941;1253;61140;-69
2023/08/12 04:29:59;;;;;;;27.40;23.20;;;;;;;25.39;59.61;99541.95;105959;1257;75110;-70
2023/08/12 04:32:27;;;;;;;32.00;24.20;;;;;;;25.56;58.66;99545.66;105967;1254;69084;-70
2023/08/12 04:34:54;;;;;;;18.40;16.50;;;;;;;25.53;58.56;99546.46;105657;1254;73076;-70
2023/08/12 04:37:21;;;;;;;12.80;10.40;;;;;;;25.78;58.28;99545.20;105949;1254;61842;-71
2023/08/12 04:39:50;;;;;;;13.50;12.00;;;;;;;26.13;55.85;99540.77;105622;1255;61225;-73
2023/08/12 04:42:18;;;;;;;;;;;;;;;26.21;55.25;99537.95;105965;1257;74977;-70
2023/08/12 04:44:45;;;;;;;9.70;7.60;;;;;;;26.87;53.34;99545.81;105990;1254;69219;-70
2023/08/12 04:47:13;;;;;;;12.50;6.80;;;;;;;27.04;51.43;99546.45;105495;1262;73035;-70
2023/08/12 04:49:41;;;;;;;10.10;7.40;;;;;;;27.32;50.42;99551.61;105984;1255;61876;-71
2023/08/12 04:52:08;;;;;;;10.60;6.80;;;;;;;27.37;49.89;99551.57;105959;1251;61431;-71
2023/08/12 04:54:35;;;;;;;9.90;6.30;;;;;;;27.61;48.87;99557.73;105964;1256;75090;-71
2023/08/12 04:57:02;;;;;;;7.50;6.00;;;;;;;27.65;48.58;99554.65;105884;1253;69050;-70
2023/08/12 04:59:29;;;;;;;10.30;5.80;;;;;;;27.57;48.56;99556.87;105931;1253;73393;-70
2023/08/12 05:01:56;;;;;;;9.10;5.50;;;;;;;28.02;47.67;99558.55;105969;1252;61776;-77
2023/08/12 05:04:33;;;;;;;5.90;5.20;;;;;;;28.69;46.31;99561.95;106786;1251;61098;-71
2023/08/12 05:07:33;;;;;;;9.90;5.60;;;;;;;28.75;45.48;99562.41;105358;1262;75194;-73
2023/08/12 05:10:01;;;;;;;7.50;5.40;;;;;;;28.88;45.15;99560.59;105292;1258;69194;-68
2023/08/12 05:12:29;;;;;;;5.30;4.80;;;;;;;28.85;44.89;99558.27;105432;1259;71578;-71
2023/08/12 05:14:56;;;;;;;11.40;5.40;;;;;;;29.08;44.80;99558.56;105442;1259;61847;-78
2023/08/12 05:17:23;;;;;;;5.90;5.40;;;;;;;28.97;44.34;99557.47;105507;1259;61572;-71
2023/08/12 05:19:50;;;;;;;8.60;7.40;;;;;;;28.78;44.85;99552.35;105484;1260;75569;-70
2023/08/12 05:22:17;;;;;;;12.20;10.10;;;;;;;28.73;44.75;99548.81;105295;1259;69161;-71
2023/08/12 05:24:43;;;;;;;8.20;6.90;;;;;;;29.25;43.94;99555.26;105422;1259;73274;-69
2023/08/12 05:27:10;;;;;;;59.00;49.40;;;;;;;29.29;43.38;99560.19;105444;1259;61328;-70
2023/08/12 05:29:37;;;;;;;57.80;41.20;;;;;;;29.31;43.01;99556.90;105508;1257;61235;-71
2023/08/12 05:32:05;;;;;;;13.80;9.30;;;;;;;29.10;43.34;99554.00;105449;1261;75104;-71
2023/08/12 05:34:32;;;;;;;44.60;31.70;;;;;;;29.53;42.62;99557.27;105244;1259;69608;-77
2023/08/12 05:36:58;;;;;;;110.30;78.00;;;;;;;29.72;42.27;99558.77;105445;1260;73120;-71
2023/08/12 05:39:25;;;;;;;18.50;8.40;;;;;;;29.60;42.27;99561.20;105395;1258;61764;-69
2023/08/12 05:41:52;;;;;;;65.60;45.70;;;;;;;29.64;42.13;99558.55;105476;1259;61405;-70
2023/08/12 05:44:19;;;;;;;119.00;86.10;;;;;;;30.04;41.83;99561.40;105468;1262;74983;-70
2023/08/12 05:46:46;;;;;;;78.50;61.00;;;;;;;30.28;41.36;99560.30;105933;1253;69219;-69
2023/08/12 05:49:13;;;;;;;60.70;44.70;;;;;;;30.56;40.52;99565.91;105914;1256;73462;-67
2023/08/12 05:51:41;;;;;;;82.90;61.10;;;;;;;30.29;40.55;99558.31;105803;1253;61238;-70
2023/08/12 05:54:08;;;;;;;19.10;17.00;;;;;;;29.82;41.17;99558.06;105952;1253;61225;-70
2023/08/12 05:56:34;;;;;;;8.00;6.30;;;;;;;29.82;41.22;99564.55;105927;1255;75007;-73
2023/08/12 05:59:01;;;;;;;9.50;5.30;;;;;;;29.92;41.33;99561.77;105982;1253;69120;-71
2023/08/12 06:01:28;;;;;;;9.10;5.90;;;;;;;29.74;41.18;99557.35;105950;1253;73173;-69
2023/08/12 06:03:55;;;;;;;5.40;4.90;;;;;;;29.77;41.18;99560.64;105919;1253;61249;-69
2023/08/12 06:06:22;;;;;;;6.90;4.70;;;;;;;29.97;41.25;99560.63;105940;1253;62293;-69
2023/08/12 06:08:49;;;;;;;9.40;5.20;;;;;;;29.76;41.34;99561.66;106007;1256;74987;-69
2023/08/12 06:11:16;;;;;;;6.60;5.00;;;;;;;29.48;41.46;99561.56;105949;1253;69224;-69
2023/08/12 06:13:43;;;;;;;9.10;5.30;;;;;;;29.14;42.19;99556.47;105824;1256;73094;-70
2023/08/12 06:16:10;;;;;;;11.10;6.60;;;;;;;29.01;42.47;99556.80;105944;1251;61761;-70
2023/08/12 06:18:37;;;;;;;10.40;6.90;;;;;;;28.95;42.66;99555.55;105967;1254;61366;-69
2023/08/12 06:21:04;;;;;;;10.80;7.20;;;;;;;28.75;43.10;99558.88;105936;1256;75061;-69
2023/08/12 06:23:31;;;;;;;15.70;8.70;;;;;;;28.40;43.81;99551.85;105619;1253;69225;-69
2023/08/12 06:25:58;;;;;;;36.50;25.60;;;;;;;28.20;44.29;99553.77;105642;1256;72956;-71
2023/08/12 06:28:24;;;;;;;17.80;12.70;;;;;;;27.76;45.15;99549.55;105931;1252;61848;-70
2023/08/12 06:30:52;;;;;;;42.00;27.60;;;;;;;28.28;44.68;99550.59;105902;1251;62238;-70
2023/08/12 06:33:19;;;;;;;100.90;67.30;;;;;;;28.38;44.50;99548.03;105935;1253;75193;-71
2023/08/12 06:35:46;;;;;;;46.90;30.60;;;;;;;28.19;45.27;99552.03;105935;1253;69205;-76
2023/08/12 06:38:17;;;;;;;47.90;31.90;;;;;;;28.40;45.22;99552.15;105940;1253;73070;-74
2023/08/12 06:40:44;;;;;;;46.20;32.60;;;;;;;28.40;45.09;99553.90;105906;1252;61343;-69
2023/08/12 06:43:11;;;;;;;56.80;37.20;;;;;;;28.94;44.24;99565.02;105927;1254;61234;-68
2023/08/12 06:45:39;;;;;;;17.50;12.80;;;;;;;29.13;43.30;99562.33;105900;1253;75052;-69
2023/08/12 06:48:06;;;;;;;51.60;34.20;;;;;;;29.11;43.67;99559.45;105979;1256;68852;-70
2023/08/12 06:50:34;;;;;;;85.20;57.90;;;;;;;28.71;44.32;99553.30;105943;1254;72552;-70
2023/08/12 06:53:01;;;;;;;52.20;34.70;;;;;;;28.71;44.44;99552.59;105556;1257;61966;-69
2023/08/12 06:55:28;;;;;;;79.40;62.80;;;;;;;28.93;43.99;99549.60;105942;1253;61286;-71
2023/08/12 06:57:55;;;;;;;11.00;7.50;;;;;;;29.26;43.24;99551.32;105968;1256;75054;-71
2023/08/12 07:00:21;;;;;;;14.90;13.60;;;;;;;29.13;43.57;99545.41;105901;1254;69162;-69
2023/08/12 07:02:49;;;;;;;12.20;8.30;;;;;;;28.89;43.79;99548.23;105909;1251;73196;-69
2023/08/12 07:05:16;;;;;;;10.20;5.20;;;;;;;29.23;43.10;99547.65;105891;1253;62191;-69
2023/08/12 07:07:43;;;;;;;6.80;4.90;;;;;;;29.40;42.90;99551.20;105949;1252;61373;-70
2023/08/12 07:10:11;;;;;;;10.20;4.60;;;;;;;29.04;43.08;99548.55;105929;1256;75080;-72
2023/08/12 07:12:38;;;;;;;6.00;4.20;;;;;;;29.25;42.99;99550.92;105939;1253;68969;-69
2023/08/12 07:15:06;;;;;;;5.60;4.60;;;;;;;29.60;42.36;99545.30;105926;1253;73193;-69
2023/08/12 07:17:33;;;;;;;8.00;5.10;;;;;;;30.58;40.83;99548.25;105699;1253;61435;-70
2023/08/12 07:20:00;;;;;;;6.00;4.40;;;;;;;30.56;40.26;99544.05;105917;1251;61261;-71
2023/08/12 07:22:26;;;;;;;7.50;4.80;;;;;;;30.74;39.87;99546.92;105911;1256;75042;-69
2023/08/12 07:24:55;;;;;;;12.00;8.30;;;;;;;30.71;40.03;99543.39;105964;1254;69050;-70
2023/08/12 07:27:22;;;;;;;124.80;114.20;;;;;;;31.71;38.35;99549.27;105931;1256;73095;-70
2023/08/12 07:29:49;;;;;;;68.80;61.80;;;;;;;31.39;38.37;99548.44;105915;1255;62267;-69
2023/08/12 07:32:16;;;;;;;10.50;7.30;;;;;;;31.67;38.00;99551.39;105972;1255;61241;-69
2023/08/12 07:34:43;;;;;;;89.90;50.30;;;;;;;31.77;37.79;99551.41;105911;1256;75118;-70
2023/08/12 07:37:10;;;;;;;121.20;72.20;;;;;;;31.79;37.61;99549.89;105923;1253;69172;-68
2023/08/12 07:39:36;;;;;;;76.10;46.40;;;;;;;31.94;37.35;99550.61;105942;1254;63810;-76
2023/08/12 07:42:03;;;;;;;63.90;37.00;;;;;;;31.82;37.25;99542.59;105954;1253;61330;-70
2023/08/12 07:44:30;;;;;;;28.60;16.30;;;;;;;32.08;37.09;99542.00;105941;1256;61256;-70
2023/08/12 07:46:57;;;;;;;16.80;14.40;;;;;;;31.91;36.78;99548.23;105921;1256;75076;-71
2023/08/12 07:49:24;;;;;;;12.00;7.20;;;;;;;31.68;36.86;99540.23;106005;1251;69391;-70
2023/08/12 07:51:51;;;;;;;14.40;6.20;;;;;;;31.61;36.88;99540.46;105908;1256;72852;-71
2023/08/12 07:54:18;;;;;;;9.00;5.60;;;;;;;31.14;37.89;99539.27;106021;1253;61266;-71
2023/08/12 07:56:44;;;;;;;10.80;4.80;;;;;;;31.24;37.62;99535.18;105906;1254;61334;-70
2023/08/12 07:59:11;;;;;;;13.10;5.00;;;;;;;32.43;36.17;99543.52;105935;1256;75141;-75
2023/08/12 08:01:38;;;;;;;4.70;3.70;;;;;;;32.55;35.57;99541.98;105971;1256;61320;-70
2023/08/12 08:04:05;;;;;;;8.10;5.00;;;;;;;32.15;35.04;99540.48;105971;1253;73085;-71
2023/08/12 08:06:32;;;;;;;7.80;5.60;;;;;;;31.90;35.59;99541.25;105963;1256;61659;-70
2023/08/12 08:09:02;;;;;;;9.20;5.10;;;;;;;32.39;35.09;99535.91;105852;1251;61190;-68
2023/08/12 08:11:30;;;;;;;8.30;4.50;;;;;;;33.07;33.98;99537.85;105957;1251;66000;-70
2023/08/12 08:13:58;;;;;;;5.30;3.30;;;;;;;32.93;33.81;99539.74;105996;1253;61333;-71
2023/08/12 08:16:24;;;;;;;7.30;5.60;;;;;;;32.53;34.18;99537.40;105975;1256;73058;-72
2023/08/12 08:18:52;;;;;;;3.60;3.20;;;;;;;32.85;33.97;99537.95;105946;1254;61324;-75
2023/08/12 08:21:19;;;;;;;68.90;42.00;;;;;;;32.73;34.23;99533.10;106031;1254;61246;-71
2023/08/12 08:23:45;;;;;;;7.20;5.10;;;;;;;33.26;33.48;99543.53;105968;1256;65777;-71
2023/08/12 08:26:13;;;;;;;76.10;42.80;;;;;;;33.46;33.02;99543.56;106059;1256;61352;-71
2023/08/12 08:28:40;;;;;;;60.60;35.90;;;;;;;32.85;33.76;99534.15;105717;1253;62500;-70
2023/08/12 08:31:06;;;;;;;13.30;9.00;;;;;;;32.83;33.41;99531.95;105950;1254;61321;-72
2023/08/12 08:33:33;;;;;;;82.80;44.80;;;;;;;33.13;33.00;99528.30;106068;1253;61241;-74
2023/08/12 08:36:00;;;;;;;5.70;3.80;;;;;;;33.25;32.39;99532.57;105958;1254;65866;-71
2023/08/12 08:38:27;;;;;;;5.90;4.40;;;;;;;33.16;32.29;99533.27;106069;1255;61683;-71
2023/08/12 08:40:54;;;;;;;52.30;33.50;;;;;;;33.21;32.35;99535.39;105982;1255;63842;-77
2023/08/12 08:43:24;;;;;;;10.20;7.30;;;;;;;33.58;32.02;99536.71;105969;1256;61212;-75
2023/08/12 08:45:54;;;;;;;9.40;7.30;;;;;;;33.46;31.91;99530.90;105603;1256;61345;-68
2023/08/12 08:48:21;;;;;;;16.70;9.20;;;;;;;33.66;31.47;99528.66;105848;1257;65911;-71
2023/08/12 08:50:48;;;;;;;8.40;6.30;;;;;;;33.87;31.19;99533.43;105799;1253;61698;-70
2023/08/12 08:53:16;;;;;;;7.50;4.00;;;;;;;34.26;30.77;99525.32;105984;1256;63943;-69
2023/08/12 08:55:43;;;;;;;6.00;3.50;;;;;;;34.44;29.62;99530.23;105698;1254;61414;-69
2023/08/12 08:58:10;;;;;;;3.30;3.00;;;;;;;34.31;29.53;99532.28;105587;1257;61414;-70
2023/08/12 09:00:38;;;;;;;7.80;3.20;;;;;;;34.48;29.17;99523.02;105919;1255;65891;-72
2023/08/12 09:03:05;;;;;;;3.40;3.10;;;;;;;34.08;29.95;99518.61;105787;1254;62321;-74
2023/08/12 09:05:32;;;;;;;4.60;3.70;;;;;;;34.44;29.79;99519.16;105796;1258;63818;-77
2023/08/12 09:08:00;;;;;;;13.00;4.00;;;;;;;34.27;30.10;99521.42;105699;1257;61336;-72
2023/08/12 09:10:28;;;;;;;9.30;4.20;;;;;;;34.65;29.44;99528.56;105922;1251;61238;-68
2023/08/12 09:12:56;;;;;;;5.60;3.30;;;;;;;34.78;29.42;99531.17;105776;1258;65759;-69
2023/08/12 09:15:23;;;;;;;9.60;3.60;;;;;;;34.39;29.38;99533.30;105764;1257;61314;-72
2023/08/12 09:17:51;;;;;;;4.80;3.60;;;;;;;33.08;30.37;99528.86;105794;1257;63972;-73
2023/08/12 09:20:18;;;;;;;62.80;57.00;;;;;;;32.71;31.10;99521.37;106086;1253;61225;-73
2023/08/12 09:22:45;;;;;;;11.30;5.10;;;;;;;32.19;32.09;99520.88;106114;1254;61884;-72
2023/08/12 09:25:12;;;;;;;7.20;5.20;;;;;;;32.63;31.56;99519.31;106114;1256;65857;-73
2023/08/12 09:27:39;;;;;;;56.10;41.50;;;;;;;32.60;31.60;99520.84;106084;1256;68563;-74
2023/08/12 09:30:07;;;;;;;22.40;17.50;;;;;;;32.73;31.34;99528.65;106015;1257;72814;-74
2023/08/12 09:32:34;;;;;;;10.80;4.30;;;;;;;33.04;30.57;99531.41;106122;1253;61256;-76
2023/08/12 09:35:03;;;;;;;43.20;30.60;;;;;;;33.37;30.08;99532.05;106082;1252;61679;-72
2023/08/12 09:37:30;;;;;;;5.40;4.50;;;;;;;34.39;29.29;99534.89;106074;1251;66022;-74
2023/08/12 09:39:56;;;;;;;6.60;3.30;;;;;;;34.21;28.56;99530.80;105933;1257;61505;-74
2023/08/12 09:42:23;;;;;;;4.80;3.40;;;;;;;34.17;28.81;99536.50;106054;1256;63937;-71
2023/08/12 09:44:50;;;;;;;47.50;32.20;;;;;;;34.66;28.60;99539.69;106124;1256;61336;-73
2023/08/12 09:47:17;;;;;;;26.70;18.30;;;;;;;34.72;28.14;99531.00;106084;1256;61250;-73
2023/08/12 09:49:43;;;;;;;4.80;3.60;;;;;;;34.82;28.43;99537.89;106001;1256;64631;-74
2023/08/12 09:52:11;;;;;;;8.10;3.40;;;;;;;34.67;27.66;99537.12;105948;1256;61397;-73
2023/08/12 09:54:39;;;;;;;5.00;4.10;;;;;;;34.00;28.43;99535.38;105902;1251;63615;-75
2023/08/12 09:57:08;;;;;;;8.60;4.50;;;;;;;33.16;29.65;99539.92;106112;1256;61330;-73
2023/08/12 09:59:35;;;;;;;3.80;3.40;;;;;;;33.73;29.12;99539.13;106099;1256;61224;-72
2023/08/12 10:02:07;;;;;;;4.50;3.40;;;;;;;34.26;28.37;99536.14;106149;1251;64992;-76
2023/08/12 10:04:44;;;;;;;4.10;3.30;;;;;;;34.22;28.77;99536.19;106177;1256;61256;-71
2023/08/12 10:07:14;;;;;;;9.60;3.20;;;;;;;33.77;29.22;99532.56;105987;1254;63945;-72
2023/08/12 10:09:41;;;;;;;8.00;4.10;;;;;;;32.69;30.72;99530.64;106139;1256;62193;-77
2023/08/12 10:12:08;;;;;;;10.10;4.40;;;;;;;32.74;31.00;99532.14;106235;1256;62264;-74
2023/08/12 10:14:35;;;;;;;9.80;4.10;;;;;;;32.93;30.75;99530.95;106096;1259;66368;-75
2023/08/12 10:17:02;;;;;;;4.80;3.90;;;;;;;33.08;30.50;99537.29;106115;1256;61362;-74
2023/08/12 10:19:33;;;;;;;5.00;4.10;;;;;;;32.97;30.28;99541.23;106121;1254;63955;-73
2023/08/12 10:22:00;;;;;;;12.60;7.30;;;;;;;32.96;30.18;99539.98;105965;1260;61194;-74
2023/08/12 10:24:27;;;;;;;8.30;7.00;;;;;;;33.10;30.22;99543.56;106149;1252;61317;-74
2023/08/12 10:26:54;;;;;;;8.30;4.90;;;;;;;33.11;30.35;99539.35;106191;1257;66022;-75
2023/08/12 10:29:22;;;;;;;6.30;4.80;;;;;;;32.83;30.26;99539.09;106202;1255;61311;-73
2023/08/12 10:31:49;;;;;;;8.50;4.80;;;;;;;32.22;30.94;99535.02;106078;1261;63722;-74
2023/08/12 10:34:22;;;;;;;10.60;4.80;;;;;;;32.01;30.51;99541.33;106044;1252;61380;-79
2023/08/12 10:36:56;;;;;;;16.40;14.40;;;;;;;32.30;30.37;99550.15;105918;1257;61310;-74
2023/08/12 10:39:33;;;;;;;30.40;19.90;;;;;;;32.64;30.39;99557.12;106348;1256;74546;-75
2023/08/12 10:41:59;;;;;;;5.50;5.00;;;;;;;32.75;30.09;99553.81;106298;1256;61266;-74
2023/08/12 10:44:27;;;;;;;7.20;5.40;;;;;;;32.74;30.01;99551.99;106233;1256;62498;-74
2023/08/12 10:46:54;;;;;;;;;;;;;;;32.77;29.88;99544.20;105966;1256;61341;-73
2023/08/12 10:49:21;;;;;;;5.50;4.00;;;;;;;33.24;29.66;99560.70;105915;1257;61265;-73
2023/08/12 10:51:52;;;;;;;8.20;7.10;;;;;;;33.43;28.87;99559.46;105898;1258;65812;-74
2023/08/12 10:54:29;;;;;;;9.40;5.60;;;;;;;33.21;29.52;99560.81;105572;1262;61456;-74
2023/08/12 10:57:05;;;;;;;4.70;4.30;;;;;;;33.16;29.85;99556.86;105540;1262;64006;-74
2023/08/12 10:59:44;;;;;;;6.10;4.80;;;;;;;32.84;30.01;99557.35;105800;1257;61301;-72
2023/08/12 11:02:20;;;;;;;10.60;5.20;;;;;;;32.45;30.11;99551.54;105800;1257;61351;-72
2023/08/12 11:05:00;;;;;;;7.00;4.90;;;;;;;32.66;29.98;99564.25;105931;1264;65656;-74
2023/08/12 11:07:34;;;;;;;12.00;5.10;;;;;;;32.89;30.05;99566.46;105888;1260;61888;-73
2023/08/12 11:10:09;;;;;;;5.60;4.20;;;;;;;33.14;30.23;99566.55;105818;1257;62538;-75
2023/08/12 11:12:36;;;;;;;7.10;5.50;;;;;;;33.70;29.86;99570.33;105754;1258;61550;-74
2023/08/12 11:15:04;;;;;;;8.20;7.40;;;;;;;33.81;29.52;99571.83;105815;1260;61389;-76
2023/08/12 11:17:39;;;;;;;9.90;7.90;;;;;;;33.32;29.45;99567.86;105923;1261;65703;-75